메인 페이지
METAR-TAF:

METAR-TAF

공항 :

윌리엄 P. 호비 공항

휴스턴, 텍사스, 미국

위도: 29-38-15N, 경도: 095-16-57W, 고도: 14m

현재 날씨관측

예보는 38분 전, 14:53시(UTC)에 발표되었습니다.
14kt
온도 29°C
습도 74%
기압 1018 hPa
시정: 16.1km
고도 1600ft 상공 구름 많음
고도 2600ft 상공 흐림

METAR: KHOU 201453Z 08014KT 10SM BKN016 OVC026 29/24 A3005 RMK AO2 SLP181 T02890244 51023

시각: 10:31 (15:31 UTC)

예보

예보는 26분 전, 15:05시(UTC)에 발표되었습니다.
예보 대상 시간: 20일 15시부터 21일 12시까지 (UTC)
15kt
시정: 10km
고도 1500ft 상공 구름 많음
고도 3000ft 상공 구름 많음
시계 내 소나기
20일 1800시부터 (UTC)
15kt, 순간 최대 풍속 25kt
시정: 10km
고도 2000ft 상공 구름 보통
고도 3500ft 상공 구름 많음
고도 10000ft 상공 구름 많음
시계 내 소나기
21일 0000시부터 (UTC)
12kt
시정: 10km
고도 3000ft 상공 구름 보통
고도 8000ft 상공 구름 많음
시계 내 소나기
21일 0300시부터 (UTC)
6kt
시정: 10km
고도 2000ft 상공 구름 보통
고도 8000ft 상공 구름 많음

TAF: KHOU 201505Z 2015/2112 08015KT P6SM VCSH BKN015 BKN030 FM201800 08015G25KT P6SM VCSH SCT020 BKN035 BKN100 FM210000 10012KT P6SM VCSH SCT030 BKN080 FM210300 08006KT P6SM SCT020 BKN080

4,000개 이상의 공항 관측 자료 및 예보 (METAR 및 TAF 보고).

지도상에서 검색 가능한 기상관측소가 노란 점과 빨간 점으로 표시되어 있습니다.

기상관측소 명을 보려면 표시 위로 마우스를 이동하세요.

날씨 관측과 예보를 보려면 클릭하세요.

지도 변경 : 확대하려면 엑스 표시가 있는 녹색 버튼, 축소하려면 빼기 표시가 있는 녹색 버튼, 다음 페이지의 지도를 보려면 녹색 화살표를 클릭하세요.


METAR-TAF: